sensor_id;sensor_type;location;lat;lon;timestamp;pressure;altitude;pressure_sealevel;temperature;humidity
57948;BME280;43754;56.992;24.292;2023-04-02T00:02:32;101138.03;;;1.53;100.00
57948;BME280;43754;56.992;24.292;2023-04-02T00:05:39;101151.03;;;1.56;100.00
57948;BME280;43754;56.992;24.292;2023-04-02T00:08:25;101149.66;;;1.51;100.00
57948;BME280;43754;56.992;24.292;2023-04-02T00:10:59;101145.34;;;1.50;100.00
57948;BME280;43754;56.992;24.292;2023-04-02T00:13:33;101154.13;;;1.50;100.00
57948;BME280;43754;56.992;24.292;2023-04-02T00:16:10;101146.19;;;1.50;100.00
57948;BME280;43754;56.992;24.292;2023-04-02T00:18:46;101164.69;;;1.50;100.00
57948;BME280;43754;56.992;24.292;2023-04-02T00:21:22;101162.16;;;1.49;100.00
57948;BME280;43754;56.992;24.292;2023-04-02T00:23:58;101174.75;;;1.45;100.00
57948;BME280;43754;56.992;24.292;2023-04-02T00:26:32;101167.34;;;1.50;100.00
57948;BME280;43754;56.992;24.292;2023-04-02T00:29:05;101176.22;;;1.49;100.00
57948;BME280;43754;56.992;24.292;2023-04-02T00:31:41;101178.09;;;1.47;100.00
57948;BME280;43754;56.992;24.292;2023-04-02T00:34:18;101171.34;;;1.43;100.00
57948;BME280;43754;56.992;24.292;2023-04-02T00:36:52;101178.84;;;1.49;100.00
57948;BME280;43754;56.992;24.292;2023-04-02T00:39:26;101187.38;;;1.53;100.00
57948;BME280;43754;56.992;24.292;2023-04-02T00:41:59;101190.13;;;1.51;100.00
57948;BME280;43754;56.992;24.292;2023-04-02T00:44:38;101193.19;;;1.58;100.00
57948;BME280;43754;56.992;24.292;2023-04-02T00:47:18;101199.41;;;1.57;100.00
57948;BME280;43754;56.992;24.292;2023-04-02T00:49:57;101204.69;;;1.57;100.00
57948;BME280;43754;56.992;24.292;2023-04-02T00:52:31;101202.91;;;1.57;100.00
57948;BME280;43754;56.992;24.292;2023-04-02T00:55:06;101203.47;;;1.50;100.00
57948;BME280;43754;56.992;24.292;2023-04-02T00:57:42;101207.44;;;1.55;100.00
57948;BME280;43754;56.992;24.292;2023-04-02T01:00:19;101211.25;;;1.51;100.00
57948;BME280;43754;56.992;24.292;2023-04-02T01:03:24;101214.66;;;1.53;100.00
57948;BME280;43754;56.992;24.292;2023-04-02T01:06:05;101226.41;;;1.49;100.00
57948;BME280;43754;56.992;24.292;2023-04-02T01:09:00;101208.75;;;1.50;100.00
57948;BME280;43754;56.992;24.292;2023-04-02T01:11:46;101214.66;;;1.53;100.00
57948;BME280;43754;56.992;24.292;2023-04-02T01:14:28;101226.25;;;1.51;100.00
57948;BME280;43754;56.992;24.292;2023-04-02T01:17:15;101214.03;;;1.50;100.00
57948;BME280;43754;56.992;24.292;2023-04-02T01:20:19;101221.81;;;1.51;100.00
57948;BME280;43754;56.992;24.292;2023-04-02T01:22:58;101229.66;;;1.53;100.00
57948;BME280;43754;56.992;24.292;2023-04-02T01:25:40;101233.25;;;1.52;100.00
57948;BME280;43754;56.992;24.292;2023-04-02T01:28:17;101233.00;;;1.55;100.00
57948;BME280;43754;56.992;24.292;2023-04-02T01:30:55;101239.38;;;1.52;100.00
57948;BME280;43754;56.992;24.292;2023-04-02T01:33:29;101238.53;;;1.52;100.00
57948;BME280;43754;56.992;24.292;2023-04-02T01:36:08;101243.94;;;1.50;100.00
57948;BME280;43754;56.992;24.292;2023-04-02T01:38:47;101242.88;;;1.53;100.00
57948;BME280;43754;56.992;24.292;2023-04-02T01:41:25;101239.16;;;1.55;100.00
57948;BME280;43754;56.992;24.292;2023-04-02T01:44:06;101242.78;;;1.54;100.00
57948;BME280;43754;56.992;24.292;2023-04-02T01:46:41;101239.47;;;1.51;100.00
57948;BME280;43754;56.992;24.292;2023-04-02T01:49:17;101254.69;;;1.47;100.00
57948;BME280;43754;56.992;24.292;2023-04-02T01:51:52;101257.34;;;1.47;100.00
57948;BME280;43754;56.992;24.292;2023-04-02T01:54:28;101266.03;;;1.49;100.00
57948;BME280;43754;56.992;24.292;2023-04-02T01:57:00;101270.13;;;1.53;100.00
57948;BME280;43754;56.992;24.292;2023-04-02T01:59:33;101271.94;;;1.53;100.00
57948;BME280;43754;56.992;24.292;2023-04-02T02:02:11;101273.00;;;1.50;100.00
57948;BME280;43754;56.992;24.292;2023-04-02T02:04:46;101277.75;;;1.45;100.00
57948;BME280;43754;56.992;24.292;2023-04-02T02:07:20;101277.47;;;1.37;100.00
57948;BME280;43754;56.992;24.292;2023-04-02T02:09:56;101283.16;;;1.31;100.00
57948;BME280;43754;56.992;24.292;2023-04-02T02:12:28;101294.78;;;1.28;100.00
57948;BME280;43754;56.992;24.292;2023-04-02T02:15:00;101304.06;;;1.21;100.00
57948;BME280;43754;56.992;24.292;2023-04-02T02:17:34;101301.97;;;1.14;100.00
57948;BME280;43754;56.992;24.292;2023-04-02T02:20:08;101303.34;;;1.07;100.00
57948;BME280;43754;56.992;24.292;2023-04-02T02:22:43;101311.78;;;0.99;100.00
57948;BME280;43754;56.992;24.292;2023-04-02T02:25:18;101313.13;;;0.92;100.00
57948;BME280;43754;56.992;24.292;2023-04-02T02:27:58;101318.00;;;0.85;100.00
57948;BME280;43754;56.992;24.292;2023-04-02T02:30:35;101332.34;;;0.81;100.00
57948;BME280;43754;56.992;24.292;2023-04-02T02:33:14;101343.13;;;0.78;100.00
57948;BME280;43754;56.992;24.292;2023-04-02T02:35:52;101343.50;;;0.72;100.00
57948;BME280;43754;56.992;24.292;2023-04-02T02:38:46;101343.09;;;0.66;100.00
57948;BME280;43754;56.992;24.292;2023-04-02T02:41:34;101352.16;;;0.62;100.00
57948;BME280;43754;56.992;24.292;2023-04-02T02:44:13;101352.44;;;0.57;100.00
57948;BME280;43754;56.992;24.292;2023-04-02T02:46:50;101354.44;;;0.54;100.00
57948;BME280;43754;56.992;24.292;2023-04-02T02:49:27;101363.50;;;0.50;100.00
57948;BME280;43754;56.992;24.292;2023-04-02T02:52:12;101363.81;;;0.45;100.00
57948;BME280;43754;56.992;24.292;2023-04-02T02:55:09;101368.53;;;0.40;100.00
57948;BME280;43754;56.992;24.292;2023-04-02T02:58:01;101374.31;;;0.32;100.00
57948;BME280;43754;56.992;24.292;2023-04-02T03:00:41;101376.31;;;0.29;100.00
57948;BME280;43754;56.992;24.292;2023-04-02T03:03:16;101376.38;;;0.27;100.00
57948;BME280;43754;56.992;24.292;2023-04-02T03:05:57;101383.53;;;0.25;100.00
57948;BME280;43754;56.992;24.292;2023-04-02T03:08:36;101386.38;;;0.22;100.00
57948;BME280;43754;56.992;24.292;2023-04-02T03:11:18;101389.31;;;0.18;100.00
57948;BME280;43754;56.992;24.292;2023-04-02T03:13:59;101398.34;;;0.14;100.00
57948;BME280;43754;56.992;24.292;2023-04-02T03:16:36;101400.63;;;0.06;100.00
57948;BME280;43754;56.992;24.292;2023-04-02T03:19:22;101395.75;;;-0.01;100.00
57948;BME280;43754;56.992;24.292;2023-04-02T03:22:03;101417.13;;;-0.05;100.00
57948;BME280;43754;56.992;24.292;2023-04-02T03:24:47;101418.06;;;-0.06;100.00
57948;BME280;43754;56.992;24.292;2023-04-02T03:27:25;101428.03;;;-0.11;100.00
57948;BME280;43754;56.992;24.292;2023-04-02T03:30:05;101421.34;;;-0.17;100.00
57948;BME280;43754;56.992;24.292;2023-04-02T03:32:41;101431.34;;;-0.22;100.00
57948;BME280;43754;56.992;24.292;2023-04-02T03:35:19;101434.13;;;-0.25;100.00
57948;BME280;43754;56.992;24.292;2023-04-02T03:37:59;101434.34;;;-0.28;100.00
57948;BME280;43754;56.992;24.292;2023-04-02T03:40:36;101448.72;;;-0.33;100.00
57948;BME280;43754;56.992;24.292;2023-04-02T03:43:15;101443.63;;;-0.36;100.00
57948;BME280;43754;56.992;24.292;2023-04-02T03:45:54;101462.19;;;-0.38;100.00
57948;BME280;43754;56.992;24.292;2023-04-02T03:48:32;101455.09;;;-0.37;100.00
57948;BME280;43754;56.992;24.292;2023-04-02T03:51:08;101459.72;;;-0.41;100.00
57948;BME280;43754;56.992;24.292;2023-04-02T03:53:45;101473.00;;;-0.42;100.00
57948;BME280;43754;56.992;24.292;2023-04-02T03:56:24;101466.09;;;-0.45;100.00
57948;BME280;43754;56.992;24.292;2023-04-02T03:59:06;101470.63;;;-0.47;100.00
57948;BME280;43754;56.992;24.292;2023-04-02T04:01:47;101487.44;;;-0.50;100.00
57948;BME280;43754;56.992;24.292;2023-04-02T04:04:24;101495.47;;;-0.51;100.00
57948;BME280;43754;56.992;24.292;2023-04-02T04:06:59;101497.31;;;-0.53;100.00
57948;BME280;43754;56.992;24.292;2023-04-02T04:09:35;101503.63;;;-0.56;100.00
57948;BME280;43754;56.992;24.292;2023-04-02T04:12:16;101505.41;;;-0.56;100.00
57948;BME280;43754;56.992;24.292;2023-04-02T04:14:59;101516.69;;;-0.54;100.00
57948;BME280;43754;56.992;24.292;2023-04-02T04:17:38;101521.94;;;-0.54;100.00
57948;BME280;43754;56.992;24.292;2023-04-02T04:20:24;101537.00;;;-0.56;100.00
57948;BME280;43754;56.992;24.292;2023-04-02T04:23:08;101534.38;;;-0.56;100.00
57948;BME280;43754;56.992;24.292;2023-04-02T04:25:43;101536.06;;;-0.55;100.00
57948;BME280;43754;56.992;24.292;2023-04-02T04:28:24;101549.06;;;-0.52;100.00
57948;BME280;43754;56.992;24.292;2023-04-02T04:31:03;101549.91;;;-0.52;100.00
57948;BME280;43754;56.992;24.292;2023-04-02T04:33:42;101555.06;;;-0.50;100.00
57948;BME280;43754;56.992;24.292;2023-04-02T04:36:23;101556.75;;;-0.49;100.00
57948;BME280;43754;56.992;24.292;2023-04-02T04:39:18;101570.59;;;-0.46;100.00
57948;BME280;43754;56.992;24.292;2023-04-02T04:41:57;101566.94;;;-0.43;100.00
57948;BME280;43754;56.992;24.292;2023-04-02T04:44:38;101569.22;;;-0.37;100.00
57948;BME280;43754;56.992;24.292;2023-04-02T04:47:13;101592.50;;;-0.29;100.00
57948;BME280;43754;56.992;24.292;2023-04-02T04:49:51;101588.16;;;-0.30;100.00
57948;BME280;43754;56.992;24.292;2023-04-02T04:52:28;101592.31;;;-0.26;100.00
57948;BME280;43754;56.992;24.292;2023-04-02T04:55:23;101603.31;;;-0.20;100.00
57948;BME280;43754;56.992;24.292;2023-04-02T04:58:02;101607.47;;;-0.16;100.00
57948;BME280;43754;56.992;24.292;2023-04-02T05:00:41;101611.81;;;-0.15;100.00
57948;BME280;43754;56.992;24.292;2023-04-02T05:03:19;101616.03;;;-0.12;100.00
57948;BME280;43754;56.992;24.292;2023-04-02T05:06:02;101620.03;;;-0.05;100.00
57948;BME280;43754;56.992;24.292;2023-04-02T05:08:39;101619.28;;;0.07;100.00
57948;BME280;43754;56.992;24.292;2023-04-02T05:11:19;101623.06;;;0.17;100.00
57948;BME280;43754;56.992;24.292;2023-04-02T05:13:58;101635.97;;;0.22;100.00
57948;BME280;43754;56.992;24.292;2023-04-02T05:16:36;101637.72;;;0.37;100.00
57948;BME280;43754;56.992;24.292;2023-04-02T05:19:16;101634.31;;;0.77;100.00
57948;BME280;43754;56.992;24.292;2023-04-02T05:21:53;101645.47;;;1.09;100.00
57948;BME280;43754;56.992;24.292;2023-04-02T05:24:43;101642.53;;;1.28;98.60
57948;BME280;43754;56.992;24.292;2023-04-02T05:27:28;101639.00;;;1.42;97.28
57948;BME280;43754;56.992;24.292;2023-04-02T05:30:12;101639.28;;;1.64;94.76
57948;BME280;43754;56.992;24.292;2023-04-02T05:32:49;101649.63;;;1.94;94.12
57948;BME280;43754;56.992;24.292;2023-04-02T05:35:29;101658.44;;;2.19;92.32
57948;BME280;43754;56.992;24.292;2023-04-02T05:38:04;101657.94;;;2.40;90.87
57948;BME280;43754;56.992;24.292;2023-04-02T05:40:40;101670.94;;;2.55;88.41
57948;BME280;43754;56.992;24.292;2023-04-02T05:43:16;101670.22;;;2.53;89.87
57948;BME280;43754;56.992;24.292;2023-04-02T05:45:54;101673.41;;;2.84;89.31
57948;BME280;43754;56.992;24.292;2023-04-02T05:48:31;101672.09;;;3.02;87.23
57948;BME280;43754;56.992;24.292;2023-04-02T05:51:07;101683.47;;;3.28;87.74
57948;BME280;43754;56.992;24.292;2023-04-02T05:53:45;101681.06;;;3.72;84.74
57948;BME280;43754;56.992;24.292;2023-04-02T05:56:22;101689.09;;;3.59;83.17
57948;BME280;43754;56.992;24.292;2023-04-02T05:59:00;101688.19;;;3.48;81.38
57948;BME280;43754;56.992;24.292;2023-04-02T06:01:42;101700.19;;;3.41;83.57
57948;BME280;43754;56.992;24.292;2023-04-02T06:04:26;101721.13;;;3.20;80.63
57948;BME280;43754;56.992;24.292;2023-04-02T06:07:04;101701.38;;;3.37;81.25
57948;BME280;43754;56.992;24.292;2023-04-02T06:09:42;101703.22;;;3.47;81.60
57948;BME280;43754;56.992;24.292;2023-04-02T06:12:25;101692.25;;;3.64;78.91
57948;BME280;43754;56.992;24.292;2023-04-02T06:14:59;101706.25;;;3.30;79.67
57948;BME280;43754;56.992;24.292;2023-04-02T06:17:44;101719.16;;;3.35;79.99
57948;BME280;43754;56.992;24.292;2023-04-02T06:20:19;101723.06;;;3.78;79.65
57948;BME280;43754;56.992;24.292;2023-04-02T06:22:54;101719.31;;;3.57;78.68
57948;BME280;43754;56.992;24.292;2023-04-02T06:25:29;101722.56;;;3.37;78.85
57948;BME280;43754;56.992;24.292;2023-04-02T06:28:10;101726.72;;;3.64;80.25
57948;BME280;43754;56.992;24.292;2023-04-02T06:30:54;101727.34;;;4.15;79.47
57948;BME280;43754;56.992;24.292;2023-04-02T06:33:30;101734.41;;;4.39;76.71
57948;BME280;43754;56.992;24.292;2023-04-02T06:36:03;101731.19;;;4.11;76.08
57948;BME280;43754;56.992;24.292;2023-04-02T06:38:38;101742.41;;;4.15;76.42
57948;BME280;43754;56.992;24.292;2023-04-02T06:41:18;101740.88;;;4.24;75.40
57948;BME280;43754;56.992;24.292;2023-04-02T06:44:22;101744.22;;;4.49;75.21
57948;BME280;43754;56.992;24.292;2023-04-02T06:47:06;101751.03;;;4.64;73.59
57948;BME280;43754;56.992;24.292;2023-04-02T06:49:45;101750.25;;;4.51;72.49
57948;BME280;43754;56.992;24.292;2023-04-02T06:52:25;101750.69;;;4.34;71.88
57948;BME280;43754;56.992;24.292;2023-04-02T06:55:04;101754.25;;;4.57;72.20
57948;BME280;43754;56.992;24.292;2023-04-02T06:57:38;101757.97;;;4.43;70.98
57948;BME280;43754;56.992;24.292;2023-04-02T07:00:23;101761.38;;;4.56;71.99
57948;BME280;43754;56.992;24.292;2023-04-02T07:02:59;101764.09;;;4.79;69.25
57948;BME280;43754;56.992;24.292;2023-04-02T07:05:35;101775.47;;;4.92;70.81
57948;BME280;43754;56.992;24.292;2023-04-02T07:08:08;101772.97;;;5.24;70.30
57948;BME280;43754;56.992;24.292;2023-04-02T07:10:40;101781.91;;;5.23;67.79
57948;BME280;43754;56.992;24.292;2023-04-02T07:13:14;101780.88;;;4.79;68.03
57948;BME280;43754;56.992;24.292;2023-04-02T07:15:49;101788.06;;;4.55;68.27
57948;BME280;43754;56.992;24.292;2023-04-02T07:18:25;101782.44;;;4.36;69.88
57948;BME280;43754;56.992;24.292;2023-04-02T07:21:00;101786.78;;;4.72;69.35
57948;BME280;43754;56.992;24.292;2023-04-02T07:23:32;101788.69;;;4.70;69.14
57948;BME280;43754;56.992;24.292;2023-04-02T07:26:05;101801.41;;;4.77;67.92
57948;BME280;43754;56.992;24.292;2023-04-02T07:28:37;101792.03;;;4.60;67.49
57948;BME280;43754;56.992;24.292;2023-04-02T07:31:15;101797.88;;;4.77;66.45
57948;BME280;43754;56.992;24.292;2023-04-02T07:33:47;101801.22;;;4.68;67.95
57948;BME280;43754;56.992;24.292;2023-04-02T07:36:22;101801.47;;;4.64;66.20
57948;BME280;43754;56.992;24.292;2023-04-02T07:38:54;101806.53;;;4.68;67.86
57948;BME280;43754;56.992;24.292;2023-04-02T07:41:26;101817.25;;;5.01;66.48
57948;BME280;43754;56.992;24.292;2023-04-02T07:43:59;101819.69;;;5.04;66.48
57948;BME280;43754;56.992;24.292;2023-04-02T07:46:31;101789.72;;;5.02;62.42
57948;BME280;43754;56.992;24.292;2023-04-02T07:49:03;101817.41;;;4.99;63.79
57948;BME280;43754;56.992;24.292;2023-04-02T07:51:36;101819.25;;;5.21;63.52
57948;BME280;43754;56.992;24.292;2023-04-02T07:54:08;101835.00;;;4.89;59.31
57948;BME280;43754;56.992;24.292;2023-04-02T07:56:41;101826.84;;;4.69;60.20
57948;BME280;43754;56.992;24.292;2023-04-02T07:59:13;101829.91;;;4.86;59.82
57948;BME280;43754;56.992;24.292;2023-04-02T08:01:45;101830.53;;;5.01;59.77
57948;BME280;43754;56.992;24.292;2023-04-02T08:04:18;101830.53;;;5.01;58.68
57948;BME280;43754;56.992;24.292;2023-04-02T08:06:52;101829.13;;;5.30;60.85
57948;BME280;43754;56.992;24.292;2023-04-02T08:09:24;101831.22;;;5.60;57.21
57948;BME280;43754;56.992;24.292;2023-04-02T08:11:56;101828.94;;;5.67;56.17
57948;BME280;43754;56.992;24.292;2023-04-02T08:14:28;101840.91;;;5.94;57.85
57948;BME280;43754;56.992;24.292;2023-04-02T08:17:00;101844.81;;;6.33;53.90
57948;BME280;43754;56.992;24.292;2023-04-02T08:19:33;101850.31;;;5.98;51.16
57948;BME280;43754;56.992;24.292;2023-04-02T08:22:23;101849.00;;;5.71;51.25
57948;BME280;43754;56.992;24.292;2023-04-02T08:24:56;101861.47;;;5.59;51.04
57948;BME280;43754;56.992;24.292;2023-04-02T08:27:28;101830.97;;;5.85;48.47
57948;BME280;43754;56.992;24.292;2023-04-02T08:30:00;101845.75;;;6.00;50.73
57948;BME280;43754;56.992;24.292;2023-04-02T08:32:32;101846.09;;;6.39;48.99
57948;BME280;43754;56.992;24.292;2023-04-02T08:35:05;101866.56;;;6.50;47.27
57948;BME280;43754;56.992;24.292;2023-04-02T08:37:39;101859.69;;;6.36;46.02
57948;BME280;43754;56.992;24.292;2023-04-02T08:40:20;101855.41;;;5.90;45.35
57948;BME280;43754;56.992;24.292;2023-04-02T08:43:17;101866.66;;;5.94;46.54
57948;BME280;43754;56.992;24.292;2023-04-02T08:46:00;101883.59;;;6.04;45.06
57948;BME280;43754;56.992;24.292;2023-04-02T08:48:37;101883.47;;;6.17;45.32
57948;BME280;43754;56.992;24.292;2023-04-02T08:51:22;101874.66;;;6.05;44.64
57948;BME280;43754;56.992;24.292;2023-04-02T08:54:00;101875.28;;;6.40;46.83
57948;BME280;43754;56.992;24.292;2023-04-02T08:56:38;101885.28;;;6.59;43.57
57948;BME280;43754;56.992;24.292;2023-04-02T08:59:19;101887.91;;;6.27;43.12
57948;BME280;43754;56.992;24.292;2023-04-02T09:02:01;101873.22;;;6.44;43.82
57948;BME280;43754;56.992;24.292;2023-04-02T09:04:34;101878.25;;;6.15;43.45
57948;BME280;43754;56.992;24.292;2023-04-02T09:07:11;101894.44;;;6.23;42.87
57948;BME280;43754;56.992;24.292;2023-04-02T09:09:47;101884.16;;;6.30;42.72
57948;BME280;43754;56.992;24.292;2023-04-02T09:12:24;101897.97;;;6.24;41.64
57948;BME280;43754;56.992;24.292;2023-04-02T09:15:10;101891.06;;;6.10;43.08
57948;BME280;43754;56.992;24.292;2023-04-02T09:17:52;101894.88;;;6.39;43.34
57948;BME280;43754;56.992;24.292;2023-04-02T09:20:30;101904.47;;;6.42;44.06
57948;BME280;43754;56.992;24.292;2023-04-02T09:23:02;101908.78;;;6.86;44.01
57948;BME280;43754;56.992;24.292;2023-04-02T09:25:42;101902.06;;;7.23;44.29
57948;BME280;43754;56.992;24.292;2023-04-02T09:28:24;101907.47;;;7.12;40.85
57948;BME280;43754;56.992;24.292;2023-04-02T09:31:03;101905.09;;;6.98;42.96
57948;BME280;43754;56.992;24.292;2023-04-02T09:33:42;101913.84;;;7.00;41.64
57948;BME280;43754;56.992;24.292;2023-04-02T09:36:25;101914.28;;;6.84;42.28
57948;BME280;43754;56.992;24.292;2023-04-02T09:39:02;101917.81;;;6.74;42.03
57948;BME280;43754;56.992;24.292;2023-04-02T09:41:38;101922.22;;;6.64;41.33
57948;BME280;43754;56.992;24.292;2023-04-02T09:44:22;101936.13;;;6.67;41.99
57948;BME280;43754;56.992;24.292;2023-04-02T09:46:55;101933.31;;;6.69;42.66
57948;BME280;43754;56.992;24.292;2023-04-02T09:49:32;101930.00;;;6.87;40.82
57948;BME280;43754;56.992;24.292;2023-04-02T09:52:08;101928.69;;;7.14;40.27
57948;BME280;43754;56.992;24.292;2023-04-02T09:55:09;101924.47;;;6.79;41.93
57948;BME280;43754;56.992;24.292;2023-04-02T09:57:49;101934.03;;;7.03;41.61
57948;BME280;43754;56.992;24.292;2023-04-02T10:00:22;101936.31;;;7.07;39.69
57948;BME280;43754;56.992;24.292;2023-04-02T10:03:05;101932.75;;;6.97;37.42
57948;BME280;43754;56.992;24.292;2023-04-02T10:05:37;101945.44;;;6.62;38.21
57948;BME280;43754;56.992;24.292;2023-04-02T10:08:18;101955.75;;;6.98;36.77
57948;BME280;43754;56.992;24.292;2023-04-02T10:10:52;101944.56;;;6.83;37.97
57948;BME280;43754;56.992;24.292;2023-04-02T10:13:30;101938.41;;;6.72;38.13
57948;BME280;43754;56.992;24.292;2023-04-02T10:16:07;101955.59;;;6.79;37.89
57948;BME280;43754;56.992;24.292;2023-04-02T10:18:45;101961.41;;;6.73;38.68
57948;BME280;43754;56.992;24.292;2023-04-02T10:21:23;101952.41;;;6.85;39.35
57948;BME280;43754;56.992;24.292;2023-04-02T10:23:56;101958.25;;;7.11;38.99
57948;BME280;43754;56.992;24.292;2023-04-02T10:26:40;101974.53;;;7.28;37.86
57948;BME280;43754;56.992;24.292;2023-04-02T10:29:34;101982.75;;;7.05;37.62
57948;BME280;43754;56.992;24.292;2023-04-02T10:32:14;101979.09;;;7.06;37.02
57948;BME280;43754;56.992;24.292;2023-04-02T10:34:55;101982.41;;;6.98;37.47
57948;BME280;43754;56.992;24.292;2023-04-02T10:37:50;101963.88;;;7.28;36.87
57948;BME280;43754;56.992;24.292;2023-04-02T10:40:27;101978.94;;;7.18;36.88
57948;BME280;43754;56.992;24.292;2023-04-02T10:43:29;101985.13;;;6.87;36.49
57948;BME280;43754;56.992;24.292;2023-04-02T10:46:13;101972.50;;;7.21;37.73
57948;BME280;43754;56.992;24.292;2023-04-02T10:48:53;101987.81;;;7.60;38.05
57948;BME280;43754;56.992;24.292;2023-04-02T10:51:32;101998.06;;;7.76;35.86
57948;BME280;43754;56.992;24.292;2023-04-02T10:54:20;102007.50;;;7.59;36.27
57948;BME280;43754;56.992;24.292;2023-04-02T10:57:04;101986.19;;;7.69;36.78
57948;BME280;43754;56.992;24.292;2023-04-02T10:59:41;101993.34;;;8.19;36.00
57948;BME280;43754;56.992;24.292;2023-04-02T11:02:27;101994.28;;;8.29;37.42
57948;BME280;43754;56.992;24.292;2023-04-02T11:05:09;101989.88;;;8.68;38.14
57948;BME280;43754;56.992;24.292;2023-04-02T11:07:52;102015.56;;;8.20;37.66
57948;BME280;43754;56.992;24.292;2023-04-02T11:10:31;102005.00;;;7.15;38.91
57948;BME280;43754;56.992;24.292;2023-04-02T11:13:10;102008.19;;;7.09;40.60
57948;BME280;43754;56.992;24.292;2023-04-02T11:15:45;102001.53;;;7.03;38.78
57948;BME280;43754;56.992;24.292;2023-04-02T11:18:29;102007.19;;;7.21;38.48
57948;BME280;43754;56.992;24.292;2023-04-02T11:21:07;102010.06;;;6.86;38.70
57948;BME280;43754;56.992;24.292;2023-04-02T11:24:00;102020.25;;;6.92;40.07
57948;BME280;43754;56.992;24.292;2023-04-02T11:26:41;102001.88;;;7.42;37.44
57948;BME280;43754;56.992;24.292;2023-04-02T11:29:18;102020.69;;;7.08;35.75
57948;BME280;43754;56.992;24.292;2023-04-02T11:35:26;102013.00;;;7.47;36.55
57948;BME280;43754;56.992;24.292;2023-04-02T11:38:46;102023.41;;;7.50;35.67
57948;BME280;43754;56.992;24.292;2023-04-02T11:44:29;102032.13;;;7.52;37.03
57948;BME280;43754;56.992;24.292;2023-04-02T11:47:16;102038.81;;;7.25;36.34
57948;BME280;43754;56.992;24.292;2023-04-02T11:50:00;102043.94;;;7.06;36.72
57948;BME280;43754;56.992;24.292;2023-04-02T11:52:49;102038.88;;;7.35;36.00
57948;BME280;43754;56.992;24.292;2023-04-02T11:55:27;102043.50;;;7.33;37.08
57948;BME280;43754;56.992;24.292;2023-04-02T11:58:16;102044.63;;;7.51;35.93
57948;BME280;43754;56.992;24.292;2023-04-02T12:01:26;102058.91;;;7.82;34.57
57948;BME280;43754;56.992;24.292;2023-04-02T12:04:20;102038.19;;;7.95;36.96
57948;BME280;43754;56.992;24.292;2023-04-02T12:07:20;102050.75;;;8.25;35.63
57948;BME280;43754;56.992;24.292;2023-04-02T12:09:59;102057.41;;;8.10;34.06
57948;BME280;43754;56.992;24.292;2023-04-02T12:12:35;102043.72;;;7.82;35.46
57948;BME280;43754;56.992;24.292;2023-04-02T12:15:31;102066.88;;;7.61;35.45
57948;BME280;43754;56.992;24.292;2023-04-02T12:18:10;102054.91;;;7.56;35.17
57948;BME280;43754;56.992;24.292;2023-04-02T12:20:49;102060.03;;;7.48;34.82
57948;BME280;43754;56.992;24.292;2023-04-02T12:23:23;102066.91;;;7.29;34.33
57948;BME280;43754;56.992;24.292;2023-04-02T12:26:00;102062.19;;;7.54;34.52
57948;BME280;43754;56.992;24.292;2023-04-02T12:28:33;102063.50;;;7.27;34.99
57948;BME280;43754;56.992;24.292;2023-04-02T12:31:12;102057.47;;;7.78;36.17
57948;BME280;43754;56.992;24.292;2023-04-02T12:33:50;102068.50;;;7.84;34.85
57948;BME280;43754;56.992;24.292;2023-04-02T12:36:23;102066.22;;;8.01;36.58
57948;BME280;43754;56.992;24.292;2023-04-02T12:38:56;102071.91;;;7.55;35.24
57948;BME280;43754;56.992;24.292;2023-04-02T12:41:32;102079.28;;;7.19;34.89
57948;BME280;43754;56.992;24.292;2023-04-02T12:44:13;102087.03;;;7.33;34.06
57948;BME280;43754;56.992;24.292;2023-04-02T12:46:49;102091.59;;;7.43;34.41
57948;BME280;43754;56.992;24.292;2023-04-02T12:49:33;102092.72;;;7.29;35.69
57948;BME280;43754;56.992;24.292;2023-04-02T12:52:08;102080.81;;;7.01;34.67
57948;BME280;43754;56.992;24.292;2023-04-02T12:54:46;102079.78;;;7.24;35.32
57948;BME280;43754;56.992;24.292;2023-04-02T12:57:37;102083.22;;;7.47;34.61
57948;BME280;43754;56.992;24.292;2023-04-02T13:00:33;102092.09;;;7.36;33.75
57948;BME280;43754;56.992;24.292;2023-04-02T13:03:15;102095.28;;;7.30;33.18
57948;BME280;43754;56.992;24.292;2023-04-02T13:05:51;102097.69;;;7.22;34.04
57948;BME280;43754;56.992;24.292;2023-04-02T13:08:27;102111.44;;;7.18;34.11
57948;BME280;43754;56.992;24.292;2023-04-02T13:11:02;102105.72;;;7.11;35.26
57948;BME280;43754;56.992;24.292;2023-04-02T13:13:37;102116.25;;;7.56;35.75
57948;BME280;43754;56.992;24.292;2023-04-02T13:16:25;102114.00;;;7.51;35.68
57948;BME280;43754;56.992;24.292;2023-04-02T13:19:28;102115.66;;;7.20;36.55
57948;BME280;43754;56.992;24.292;2023-04-02T13:22:02;102123.97;;;6.84;36.24
57948;BME280;43754;56.992;24.292;2023-04-02T13:24:34;102123.97;;;6.84;36.31
57948;BME280;43754;56.992;24.292;2023-04-02T13:27:08;102125.66;;;6.63;35.93
57948;BME280;43754;56.992;24.292;2023-04-02T13:29:42;102127.69;;;6.48;35.62
57948;BME280;43754;56.992;24.292;2023-04-02T13:32:14;102125.41;;;6.66;36.95
57948;BME280;43754;56.992;24.292;2023-04-02T13:34:46;102143.69;;;6.92;41.01
57948;BME280;43754;56.992;24.292;2023-04-02T13:37:18;102143.56;;;6.94;43.04
57948;BME280;43754;56.992;24.292;2023-04-02T13:39:51;102145.75;;;6.78;43.91
57948;BME280;43754;56.992;24.292;2023-04-02T13:42:23;102150.94;;;7.02;44.03
57948;BME280;43754;56.992;24.292;2023-04-02T13:44:56;102149.63;;;6.74;43.31
57948;BME280;43754;56.992;24.292;2023-04-02T13:47:29;102164.06;;;6.71;44.20
57948;BME280;43754;56.992;24.292;2023-04-02T13:50:03;102154.41;;;6.35;43.88
57948;BME280;43754;56.992;24.292;2023-04-02T13:52:35;102162.19;;;6.38;44.72
57948;BME280;43754;56.992;24.292;2023-04-02T13:55:08;102155.66;;;6.42;44.42